createdAt,value
2022-12-19T00:00:03.279Z,34.40
2022-12-19T00:01:35.009Z,35.57
2022-12-19T00:03:06.800Z,34.64
2022-12-19T00:04:38.407Z,33.83
2022-12-19T00:06:10.250Z,36.35
2022-12-19T00:07:41.948Z,35.66
2022-12-19T00:09:13.418Z,35.93
2022-12-19T00:10:45.228Z,36.53
2022-12-19T00:12:19.487Z,36.57
2022-12-19T00:13:50.842Z,37.19
2022-12-19T00:15:22.427Z,35.70
2022-12-19T00:16:54.176Z,38.56
2022-12-19T00:18:25.622Z,35.51
2022-12-19T00:20:01.929Z,36.37
2022-12-19T00:21:35.104Z,37.36
2022-12-19T00:23:47.364Z,36.75
2022-12-19T00:25:19.127Z,37.75
2022-12-19T00:26:50.749Z,36.45
2022-12-19T00:28:22.401Z,38.61
2022-12-19T00:29:53.767Z,36.34
2022-12-19T00:31:25.007Z,37.35
2022-12-19T00:32:56.204Z,35.27
2022-12-19T00:34:28.167Z,35.15
2022-12-19T00:35:59.497Z,36.49
2022-12-19T00:37:30.819Z,37.99
2022-12-19T00:39:02.536Z,39.03
2022-12-19T00:40:39.157Z,38.44
2022-12-19T00:42:10.476Z,36.67
2022-12-19T00:43:42.005Z,33.12
2022-12-19T00:45:13.726Z,35.34
2022-12-19T00:46:51.054Z,38.92
2022-12-19T00:48:24.293Z,37.15
2022-12-19T00:49:55.664Z,37.16
2022-12-19T00:51:27.011Z,35.86
2022-12-19T00:52:58.503Z,40.35
2022-12-19T00:54:30.139Z,37.54
2022-12-19T00:56:01.763Z,37.14
2022-12-19T00:57:33.019Z,38.19
2022-12-19T00:59:04.399Z,36.89
2022-12-19T01:00:35.637Z,36.74
2022-12-19T01:02:07.009Z,38.32
2022-12-19T01:03:38.322Z,39.21
2022-12-19T01:05:09.604Z,37.35
2022-12-19T01:06:40.882Z,39.37
2022-12-19T01:08:12.384Z,38.19
2022-12-19T01:09:43.715Z,34.89
2022-12-19T01:11:16.810Z,38.84
2022-12-19T01:12:48.212Z,35.90
2022-12-19T01:14:23.065Z,36.07
2022-12-19T01:15:54.810Z,36.26
2022-12-19T01:17:26.545Z,38.00
2022-12-19T01:18:58.944Z,36.80
2022-12-19T01:20:33.339Z,35.44
2022-12-19T01:22:04.640Z,37.39
2022-12-19T01:23:36.596Z,40.35
2022-12-19T01:25:08.101Z,36.73
2022-12-19T01:26:39.318Z,36.58
2022-12-19T01:28:10.582Z,37.87
2022-12-19T01:29:52.307Z,37.65
2022-12-19T01:31:24.277Z,37.91
2022-12-19T01:32:55.897Z,35.57
2022-12-19T01:34:27.251Z,38.22
2022-12-19T01:35:58.690Z,37.33
2022-12-19T01:37:29.900Z,37.88
2022-12-19T01:39:01.323Z,36.44
2022-12-19T01:40:32.734Z,33.62
2022-12-19T01:42:04.235Z,33.76
2022-12-19T01:43:35.680Z,32.82
2022-12-19T01:45:13.368Z,35.23
2022-12-19T01:46:45.490Z,35.56
2022-12-19T01:48:17.168Z,33.00
2022-12-19T01:49:48.483Z,36.07
2022-12-19T01:51:20.094Z,35.15
2022-12-19T01:52:51.493Z,33.70
2022-12-19T01:54:22.811Z,34.37
2022-12-19T01:55:54.258Z,34.14
2022-12-19T01:57:25.606Z,32.17
2022-12-19T01:59:05.964Z,32.58
2022-12-19T02:00:38.416Z,33.11
2022-12-19T02:02:10.059Z,33.92
2022-12-19T02:03:41.616Z,35.30
2022-12-19T02:05:12.986Z,33.99
2022-12-19T02:06:44.613Z,33.60
2022-12-19T02:08:16.175Z,34.84
2022-12-19T02:09:50.581Z,35.62
2022-12-19T02:11:28.698Z,37.11
2022-12-19T02:13:05.877Z,37.43
2022-12-19T02:14:37.504Z,37.96
2022-12-19T02:16:09.043Z,35.90
2022-12-19T02:17:40.490Z,36.18
2022-12-19T02:19:13.140Z,36.96
2022-12-19T02:20:45.127Z,35.50
2022-12-19T02:22:19.118Z,34.19
2022-12-19T02:23:51.112Z,36.40
2022-12-19T02:25:22.424Z,35.53
2022-12-19T02:26:53.831Z,37.04
2022-12-19T02:28:25.557Z,35.47
2022-12-19T02:29:57.016Z,35.03
2022-12-19T02:31:28.843Z,36.50
2022-12-19T02:33:00.310Z,35.87
2022-12-19T02:34:31.850Z,34.29
2022-12-19T02:36:03.158Z,34.72
2022-12-19T02:37:34.589Z,35.26
2022-12-19T02:39:06.514Z,36.60
2022-12-19T02:40:37.879Z,35.34
2022-12-19T02:42:09.081Z,35.33
2022-12-19T02:43:41.721Z,35.34
2022-12-19T02:45:13.298Z,37.56
2022-12-19T02:46:51.635Z,34.56
2022-12-19T02:48:23.016Z,34.14
2022-12-19T02:49:56.021Z,33.17
2022-12-19T02:51:27.331Z,33.89
2022-12-19T02:52:58.979Z,31.84
2022-12-19T02:54:30.276Z,34.38
2022-12-19T02:56:01.785Z,32.04
2022-12-19T02:57:35.612Z,32.11
2022-12-19T02:59:08.336Z,31.78
2022-12-19T03:00:39.605Z,31.66
2022-12-19T03:02:11.957Z,31.83
2022-12-19T03:03:43.948Z,32.44
2022-12-19T03:05:15.817Z,31.75
2022-12-19T03:06:47.987Z,30.72
2022-12-19T03:08:20.545Z,31.56
2022-12-19T03:09:51.976Z,31.41
2022-12-19T03:11:23.989Z,33.22
2022-12-19T03:12:55.682Z,32.21
2022-12-19T03:14:27.006Z,30.87
2022-12-19T03:15:58.573Z,29.94
2022-12-19T03:17:30.288Z,28.33
2022-12-19T03:19:01.540Z,27.49
2022-12-19T03:20:33.062Z,31.92
2022-12-19T03:22:04.553Z,29.33
2022-12-19T03:23:36.648Z,28.47
2022-12-19T03:25:08.327Z,31.50
2022-12-19T03:26:40.089Z,29.98
2022-12-19T03:28:11.495Z,29.92
2022-12-19T03:29:43.342Z,30.58
2022-12-19T03:31:14.736Z,28.99
2022-12-19T03:32:46.266Z,29.00
2022-12-19T03:34:17.924Z,32.77
2022-12-19T03:35:49.772Z,28.42
2022-12-19T03:37:21.095Z,30.31
2022-12-19T03:38:52.461Z,31.79
2022-12-19T03:40:24.152Z,29.81
2022-12-19T03:41:56.914Z,30.68
2022-12-19T03:43:28.446Z,28.64
2022-12-19T03:44:59.978Z,27.81
2022-12-19T03:46:31.337Z,29.16
2022-12-19T03:48:02.764Z,30.74
2022-12-19T03:49:34.123Z,31.34
2022-12-19T03:51:05.814Z,25.94
2022-12-19T03:52:37.075Z,28.57
2022-12-19T03:54:08.319Z,27.86
2022-12-19T03:55:39.942Z,26.61
2022-12-19T03:57:11.279Z,28.46
2022-12-19T03:58:43.823Z,33.34
2022-12-19T04:00:15.513Z,31.78
2022-12-19T04:01:47.304Z,29.40
2022-12-19T04:03:18.907Z,29.45
2022-12-19T04:04:50.353Z,29.25
2022-12-19T04:06:21.509Z,30.21
2022-12-19T04:07:52.879Z,30.88
2022-12-19T04:09:24.097Z,32.13
2022-12-19T04:10:56.043Z,26.98
2022-12-19T04:12:28.497Z,30.48
2022-12-19T04:14:00.213Z,29.58
2022-12-19T04:15:31.570Z,33.21
2022-12-19T04:17:02.958Z,29.47
2022-12-19T04:18:34.523Z,28.74
2022-12-19T04:20:06.836Z,30.46
2022-12-19T04:21:38.219Z,29.11
2022-12-19T04:23:09.422Z,29.33
2022-12-19T04:24:40.977Z,32.60
2022-12-19T04:26:12.791Z,32.37
2022-12-19T04:27:44.443Z,30.84
2022-12-19T04:29:16.268Z,32.19
2022-12-19T04:30:48.188Z,32.10
2022-12-19T04:32:19.552Z,30.27
2022-12-19T04:33:52.092Z,34.73
2022-12-19T04:35:24.030Z,34.04
2022-12-19T04:36:55.425Z,31.47
2022-12-19T04:38:26.795Z,29.95
2022-12-19T04:39:58.044Z,27.87
2022-12-19T04:41:29.374Z,30.66
2022-12-19T04:43:00.791Z,31.70
2022-12-19T04:44:32.449Z,29.56
2022-12-19T04:46:03.972Z,31.00
2022-12-19T04:47:35.769Z,31.84
2022-12-19T04:49:07.081Z,27.94
2022-12-19T04:50:38.427Z,28.09
2022-12-19T04:52:09.929Z,30.01
2022-12-19T04:53:41.279Z,26.50
2022-12-19T04:55:12.739Z,28.68
2022-12-19T04:56:44.555Z,31.67
2022-12-19T04:58:20.235Z,31.54
2022-12-19T04:59:53.001Z,30.80
2022-12-19T05:01:24.388Z,30.83
2022-12-19T05:02:55.962Z,24.83
2022-12-19T05:04:27.299Z,29.61
2022-12-19T05:05:58.981Z,30.32
2022-12-19T05:07:30.268Z,31.49
2022-12-19T05:09:02.268Z,32.87
2022-12-19T05:10:33.851Z,25.70
2022-12-19T05:12:05.287Z,27.50
2022-12-19T05:13:36.758Z,28.23
2022-12-19T05:15:08.497Z,30.34
2022-12-19T05:16:40.348Z,30.35
2022-12-19T05:18:12.175Z,30.77
2022-12-19T05:19:43.705Z,31.40
2022-12-19T05:21:15.499Z,29.97
2022-12-19T05:22:47.018Z,29.88
2022-12-19T05:24:19.572Z,27.28
2022-12-19T05:25:51.769Z,29.14
2022-12-19T05:27:23.415Z,29.63
2022-12-19T05:28:55.147Z,29.61
2022-12-19T05:30:26.753Z,30.14
2022-12-19T05:31:58.243Z,30.55
2022-12-19T05:33:30.591Z,27.66
2022-12-19T05:35:01.921Z,26.56
2022-12-19T05:36:33.652Z,31.44
2022-12-19T05:38:05.069Z,28.69
2022-12-19T05:39:36.856Z,29.20
2022-12-19T05:41:08.076Z,26.09
2022-12-19T05:42:39.563Z,26.89
2022-12-19T05:44:11.053Z,26.96
2022-12-19T05:45:42.522Z,28.18
2022-12-19T05:47:27.451Z,29.37
2022-12-19T05:48:58.959Z,30.13
2022-12-19T05:50:32.075Z,29.72
2022-12-19T05:52:03.831Z,27.10
2022-12-19T05:53:35.581Z,26.77
2022-12-19T05:55:06.880Z,26.06
2022-12-19T05:56:38.766Z,24.43
2022-12-19T05:58:15.504Z,25.41
2022-12-19T05:59:47.468Z,24.50
2022-12-19T06:01:19.016Z,24.23
2022-12-19T06:02:56.256Z,23.35
2022-12-19T06:04:28.307Z,25.61
2022-12-19T06:06:00.187Z,24.14
2022-12-19T06:07:31.915Z,23.72
2022-12-19T06:09:03.337Z,23.79
2022-12-19T06:10:34.553Z,26.31
2022-12-19T06:12:06.261Z,25.54
2022-12-19T06:13:37.971Z,23.28
2022-12-19T06:15:09.754Z,22.08
2022-12-19T06:16:41.080Z,22.81
2022-12-19T06:18:12.911Z,22.31
2022-12-19T06:19:44.201Z,23.57
2022-12-19T06:21:15.669Z,22.29
2022-12-19T06:22:47.345Z,19.87
2022-12-19T06:24:18.653Z,20.22
2022-12-19T06:25:50.241Z,20.30
2022-12-19T06:27:21.571Z,20.20
2022-12-19T06:28:53.033Z,21.19
2022-12-19T06:30:24.505Z,20.17
2022-12-19T06:31:56.101Z,21.92
2022-12-19T06:33:27.565Z,18.90
2022-12-19T06:35:04.981Z,21.73
2022-12-19T06:36:36.489Z,19.32
2022-12-19T06:38:07.789Z,22.22
2022-12-19T06:39:39.276Z,21.89
2022-12-19T06:41:10.611Z,21.32
2022-12-19T06:42:42.328Z,23.14
2022-12-19T06:44:13.843Z,19.29
2022-12-19T06:45:45.289Z,19.75
2022-12-19T06:47:16.725Z,20.79
2022-12-19T06:48:48.365Z,19.68
2022-12-19T06:50:19.910Z,19.38
2022-12-19T06:51:51.303Z,20.61
2022-12-19T06:53:23.398Z,19.82
2022-12-19T06:54:54.853Z,17.59
2022-12-19T06:56:26.284Z,19.32
2022-12-19T06:57:57.845Z,18.98
2022-12-19T06:59:29.738Z,19.86
2022-12-19T07:01:01.911Z,23.10
2022-12-19T07:02:34.040Z,19.87
2022-12-19T07:04:05.648Z,22.21
2022-12-19T07:05:36.991Z,20.58
2022-12-19T07:07:08.460Z,21.53
2022-12-19T07:08:40.316Z,23.10
2022-12-19T07:10:12.206Z,22.60
2022-12-19T07:11:43.778Z,19.64
2022-12-19T07:13:16.141Z,22.08
2022-12-19T07:14:53.105Z,20.78
2022-12-19T07:16:25.418Z,18.86
2022-12-19T07:17:57.108Z,19.06
2022-12-19T07:19:28.684Z,21.60
2022-12-19T07:21:00.004Z,19.69
2022-12-19T07:22:31.283Z,21.28
2022-12-19T07:24:02.533Z,19.01
2022-12-19T07:25:34.131Z,19.60
2022-12-19T07:27:05.595Z,18.55
2022-12-19T07:28:37.253Z,20.69
2022-12-19T07:30:08.551Z,20.57
2022-12-19T07:31:40.187Z,20.08
2022-12-19T07:33:13.607Z,19.46
2022-12-19T07:34:49.280Z,20.26
2022-12-19T07:36:21.064Z,19.74
2022-12-19T07:37:53.057Z,19.85
2022-12-19T07:39:24.594Z,21.37
2022-12-19T07:40:56.157Z,21.86
2022-12-19T07:42:32.234Z,20.94
2022-12-19T07:44:04.073Z,22.87
2022-12-19T07:45:36.094Z,20.64
2022-12-19T07:47:08.107Z,21.02
2022-12-19T07:48:39.506Z,18.44
2022-12-19T07:50:10.943Z,21.39
2022-12-19T07:51:42.354Z,21.77
2022-12-19T07:53:13.555Z,21.25
2022-12-19T07:54:45.043Z,21.14
2022-12-19T07:56:16.293Z,20.17
2022-12-19T07:57:48.044Z,22.68
2022-12-19T07:59:24.427Z,21.47
2022-12-19T08:00:58.978Z,23.86
2022-12-19T08:02:30.721Z,19.61
2022-12-19T08:04:57.287Z,21.25
2022-12-19T08:06:29.493Z,16.80
2022-12-19T08:08:01.303Z,22.74
2022-12-19T08:09:33.021Z,22.09
2022-12-19T08:11:04.900Z,22.81
2022-12-19T08:12:36.981Z,22.00
2022-12-19T08:14:09.013Z,23.30
2022-12-19T08:15:40.711Z,24.87
2022-12-19T08:17:21.300Z,23.10
2022-12-19T08:18:52.941Z,22.09
2022-12-19T08:20:24.531Z,20.85
2022-12-19T08:22:28.125Z,22.80
2022-12-19T08:24:05.108Z,23.49
2022-12-19T08:25:36.407Z,22.26
2022-12-19T08:27:28.171Z,21.79
2022-12-19T08:28:59.433Z,19.32
2022-12-19T08:30:30.770Z,16.78
2022-12-19T08:32:02.083Z,18.73
2022-12-19T08:33:33.581Z,21.58
2022-12-19T08:35:04.857Z,21.34
2022-12-19T08:36:36.268Z,21.61
2022-12-19T08:38:07.713Z,24.93
2022-12-19T08:39:39.317Z,19.95
2022-12-19T08:41:10.643Z,19.46
2022-12-19T08:42:42.189Z,21.77
2022-12-19T08:44:13.733Z,23.21
2022-12-19T08:45:45.131Z,22.26
2022-12-19T08:47:16.587Z,23.23
2022-12-19T08:48:47.909Z,23.97
2022-12-19T08:50:19.620Z,23.22
2022-12-19T08:51:50.988Z,22.99
2022-12-19T08:53:26.263Z,23.85
2022-12-19T08:54:58.417Z,25.12
2022-12-19T08:56:29.969Z,21.53
2022-12-19T08:58:01.499Z,21.35
2022-12-19T08:59:33.295Z,23.45
2022-12-19T09:01:05.950Z,22.73
2022-12-19T09:02:37.671Z,22.65
2022-12-19T09:06:02.335Z,22.18
2022-12-19T09:07:38.830Z,20.93
2022-12-19T09:09:10.558Z,19.30
2022-12-19T09:10:41.769Z,21.78
2022-12-19T09:12:13.136Z,20.40
2022-12-19T09:13:45.045Z,19.46
2022-12-19T09:15:16.499Z,21.20
2022-12-19T09:16:48.149Z,20.79
2022-12-19T09:18:19.623Z,22.40
2022-12-19T09:19:56.054Z,20.93
2022-12-19T09:21:27.395Z,19.67
2022-12-19T09:22:58.787Z,20.76
2022-12-19T09:24:30.160Z,21.15
2022-12-19T09:26:01.684Z,20.44
2022-12-19T09:27:47.407Z,20.25
2022-12-19T09:29:54.503Z,19.78
2022-12-19T09:31:26.257Z,19.49
2022-12-19T09:32:57.565Z,20.08
2022-12-19T09:34:37.305Z,19.58
2022-12-19T09:36:10.072Z,20.47
2022-12-19T09:37:41.451Z,19.65
2022-12-19T09:39:12.942Z,16.96
2022-12-19T09:40:44.387Z,20.83
2022-12-19T09:42:16.146Z,18.60
2022-12-19T09:43:47.487Z,17.61
2022-12-19T09:45:31.980Z,19.79
2022-12-19T09:47:04.206Z,20.50
2022-12-19T09:48:36.084Z,17.63
2022-12-19T09:50:07.599Z,19.48
2022-12-19T09:51:39.005Z,17.47
2022-12-19T09:53:11.642Z,17.67
2022-12-19T09:54:43.330Z,18.79
2022-12-19T09:56:14.943Z,18.91
2022-12-19T09:57:46.773Z,17.70
2022-12-19T09:59:18.537Z,16.62
2022-12-19T10:00:59.694Z,17.84
2022-12-19T10:02:31.888Z,17.57
2022-12-19T10:04:03.478Z,18.79
2022-12-19T10:06:01.150Z,18.54
2022-12-19T10:10:12.193Z,19.85
2022-12-19T10:14:16.785Z,20.29
2022-12-19T10:15:59.852Z,18.20
2022-12-19T10:17:38.257Z,18.36
2022-12-19T10:19:34.971Z,19.72
2022-12-19T10:21:11.894Z,20.12
2022-12-19T10:22:43.208Z,18.02
2022-12-19T10:24:14.806Z,18.53
2022-12-19T10:25:46.280Z,18.47
2022-12-19T10:27:18.017Z,17.72
2022-12-19T10:28:49.713Z,17.16
2022-12-19T10:30:26.534Z,20.22
2022-12-19T10:32:00.646Z,19.40
2022-12-19T10:33:32.018Z,17.13
2022-12-19T10:35:03.623Z,18.05
2022-12-19T10:37:04.383Z,18.99
2022-12-19T10:38:51.250Z,18.25
2022-12-19T10:40:27.448Z,18.59
2022-12-19T10:41:59.978Z,17.94
2022-12-19T10:43:34.796Z,18.78
2022-12-19T10:45:09.377Z,19.57
2022-12-19T10:46:40.865Z,20.55
2022-12-19T10:48:12.376Z,20.41
2022-12-19T10:49:45.145Z,19.06
2022-12-19T10:51:18.135Z,18.42
2022-12-19T10:52:49.891Z,18.06
2022-12-19T10:54:21.486Z,17.29
2022-12-19T10:55:52.757Z,19.45
2022-12-19T10:57:24.133Z,15.83
2022-12-19T10:58:55.596Z,18.18
2022-12-19T11:00:28.599Z,20.10
2022-12-19T11:02:08.575Z,18.66
2022-12-19T11:03:43.082Z,18.01
2022-12-19T11:05:14.571Z,19.89
2022-12-19T11:06:46.181Z,17.49
2022-12-19T11:08:17.767Z,17.52
2022-12-19T11:10:08.121Z,18.21
2022-12-19T11:16:58.483Z,15.54
2022-12-19T11:30:36.283Z,15.09
2022-12-19T11:33:21.768Z,16.67
2022-12-19T11:34:53.146Z,15.88
2022-12-19T11:36:24.486Z,15.96
2022-12-19T11:37:56.127Z,15.63
2022-12-19T11:39:27.636Z,18.22
2022-12-19T11:40:59.170Z,16.68
2022-12-19T11:42:30.682Z,16.33
2022-12-19T11:44:02.047Z,13.57
2022-12-19T11:45:33.504Z,16.01
2022-12-19T11:47:05.192Z,15.44
2022-12-19T11:48:36.557Z,13.43
2022-12-19T11:50:08.054Z,14.43
2022-12-19T11:51:39.481Z,13.68
2022-12-19T11:53:18.331Z,15.12
2022-12-19T11:54:50.167Z,14.64
2022-12-19T11:56:23.012Z,15.09
2022-12-19T11:57:54.961Z,13.41
2022-12-19T11:59:26.818Z,14.16
2022-12-19T12:00:58.669Z,13.68
2022-12-19T12:02:29.934Z,13.62
2022-12-19T12:04:02.587Z,12.59
2022-12-19T12:05:34.858Z,15.29
2022-12-19T12:07:14.243Z,11.41
2022-12-19T12:11:46.784Z,12.83
2022-12-19T12:31:31.195Z,13.07
2022-12-19T12:40:29.534Z,11.55
2022-12-19T12:42:01.051Z,10.98
2022-12-19T12:43:32.331Z,11.14
2022-12-19T12:45:03.634Z,11.48
2022-12-19T12:46:35.264Z,11.10
2022-12-19T12:48:06.541Z,9.93
2022-12-19T12:49:37.843Z,12.04
2022-12-19T12:51:09.455Z,11.62
2022-12-19T12:52:41.051Z,11.88
2022-12-19T12:54:12.536Z,10.41
2022-12-19T12:55:43.871Z,10.36
2022-12-19T12:57:15.683Z,10.28
2022-12-19T12:58:47.021Z,10.57
2022-12-19T13:00:18.420Z,9.96
2022-12-19T13:01:49.786Z,10.89
2022-12-19T13:03:21.490Z,10.93
2022-12-19T13:04:53.943Z,13.49
2022-12-19T13:06:31.087Z,13.24
2022-12-19T13:08:06.187Z,11.68
2022-12-19T13:09:43.019Z,11.74
2022-12-19T13:11:14.526Z,11.51
2022-12-19T13:12:46.835Z,12.31
2022-12-19T13:14:36.060Z,12.74
2022-12-19T13:16:07.596Z,11.07
2022-12-19T13:17:38.967Z,11.07
2022-12-19T13:19:17.421Z,11.51
2022-12-19T13:20:52.679Z,11.45
2022-12-19T13:22:24.273Z,10.51
2022-12-19T13:23:55.597Z,10.12
2022-12-19T13:25:27.236Z,9.99
2022-12-19T13:27:06.081Z,12.33
2022-12-19T13:28:37.505Z,9.82
2022-12-19T13:30:08.837Z,11.14
2022-12-19T13:31:40.165Z,9.74
2022-12-19T13:33:11.826Z,10.20
2022-12-19T13:34:46.763Z,10.10
2022-12-19T13:39:51.267Z,10.66
2022-12-19T13:41:37.691Z,10.44
2022-12-19T13:43:11.236Z,9.07
2022-12-19T13:44:43.134Z,9.30
2022-12-19T13:46:14.654Z,9.82
2022-12-19T13:47:46.258Z,11.62
2022-12-19T13:49:45.981Z,10.30
2022-12-19T13:51:17.479Z,10.80
2022-12-19T13:52:48.898Z,11.17
2022-12-19T13:54:20.230Z,10.59
2022-12-19T13:55:51.640Z,9.75
2022-12-19T13:57:22.985Z,9.07
2022-12-19T13:58:54.255Z,10.02
2022-12-19T14:00:25.548Z,10.24
2022-12-19T14:01:59.438Z,10.12
2022-12-19T14:03:31.311Z,11.21
2022-12-19T14:05:03.570Z,9.59
2022-12-19T14:06:35.142Z,10.16
2022-12-19T14:08:06.599Z,10.01
2022-12-19T14:11:26.105Z,9.68
2022-12-19T14:13:45.585Z,12.04
2022-12-19T14:15:33.685Z,9.15
2022-12-19T14:17:04.973Z,9.35
2022-12-19T14:18:42.895Z,10.29
2022-12-19T14:22:04.208Z,8.48
2022-12-19T14:23:44.555Z,11.29
2022-12-19T14:28:16.744Z,10.10
2022-12-19T14:30:30.802Z,10.33
2022-12-19T14:33:39.458Z,9.97
2022-12-19T14:36:10.440Z,10.02
2022-12-19T14:38:13.122Z,9.37
2022-12-19T14:41:08.857Z,10.22
2022-12-19T14:43:55.845Z,10.35
2022-12-19T14:54:11.823Z,10.17
2022-12-19T14:56:59.094Z,10.95
2022-12-19T14:59:09.118Z,10.67
2022-12-19T15:01:09.225Z,10.30
2022-12-19T15:02:43.260Z,9.88
2022-12-19T15:04:52.575Z,10.98
2022-12-19T15:07:07.654Z,9.43
2022-12-19T15:10:58.352Z,9.89
2022-12-19T15:14:47.123Z,12.26
2022-12-19T15:16:42.984Z,10.15
2022-12-19T15:18:15.718Z,10.33
2022-12-19T15:19:48.616Z,12.50
2022-12-19T15:21:20.393Z,11.52
2022-12-19T15:22:51.702Z,10.65
2022-12-19T15:24:33.802Z,9.26
2022-12-19T15:26:20.180Z,10.43
2022-12-19T15:28:15.912Z,11.12
2022-12-19T15:32:11.016Z,8.91
2022-12-19T15:34:00.113Z,10.36
2022-12-19T15:36:13.088Z,10.65
2022-12-19T15:37:45.306Z,11.17
2022-12-19T15:39:17.163Z,8.16
2022-12-19T15:40:48.512Z,9.14
2022-12-19T15:42:35.130Z,9.08
2022-12-19T15:44:06.817Z,9.07
2022-12-19T15:45:38.854Z,10.21
2022-12-19T15:47:10.315Z,8.33
2022-12-19T15:48:41.749Z,10.06
2022-12-19T15:50:18.821Z,9.57
2022-12-19T15:52:10.028Z,9.25
2022-12-19T15:54:30.170Z,9.83
2022-12-19T15:56:25.480Z,9.51
2022-12-19T15:57:57.231Z,10.24
2022-12-19T15:59:36.414Z,8.30
2022-12-19T16:01:09.785Z,9.57
2022-12-19T16:03:23.572Z,8.42
2022-12-19T16:05:08.177Z,8.56
2022-12-19T16:06:39.621Z,9.61
2022-12-19T16:08:11.342Z,7.73
2022-12-19T16:09:43.319Z,9.48
2022-12-19T16:11:14.578Z,9.99
2022-12-19T16:12:46.377Z,8.33
2022-12-19T16:14:17.977Z,8.45
2022-12-19T16:15:59.604Z,8.79
2022-12-19T16:17:55.353Z,9.17
2022-12-19T16:19:51.009Z,10.24
2022-12-19T16:21:27.495Z,11.93
2022-12-19T16:23:29.602Z,9.18
2022-12-19T16:25:07.221Z,9.10
2022-12-19T16:26:39.350Z,8.25
2022-12-19T16:28:17.677Z,8.04
2022-12-19T16:29:49.943Z,6.20
2022-12-19T16:31:21.840Z,8.03
2022-12-19T16:33:06.618Z,7.84
2022-12-19T16:34:38.602Z,7.68
2022-12-19T16:36:10.803Z,7.27
2022-12-19T16:37:42.890Z,6.95
2022-12-19T16:39:14.781Z,7.07
2022-12-19T16:40:47.042Z,8.77
2022-12-19T16:42:20.092Z,8.75
2022-12-19T16:43:57.579Z,7.26
2022-12-19T16:45:29.124Z,7.31
2022-12-19T16:49:12.556Z,8.70
2022-12-19T16:50:49.394Z,6.81
2022-12-19T16:52:20.697Z,8.22
2022-12-19T16:53:52.307Z,8.97
2022-12-19T16:55:35.422Z,8.27
2022-12-19T16:57:07.475Z,7.42
2022-12-19T16:58:43.294Z,7.21
2022-12-19T17:00:35.340Z,7.42
2022-12-19T17:02:30.213Z,7.16
2022-12-19T17:04:12.062Z,7.44
2022-12-19T17:05:43.498Z,8.15
2022-12-19T17:07:15.016Z,7.82
2022-12-19T17:08:46.534Z,9.62
2022-12-19T17:10:21.303Z,6.87
2022-12-19T17:11:57.259Z,7.18
2022-12-19T17:13:28.819Z,6.63
2022-12-19T17:15:00.308Z,7.51
2022-12-19T17:17:00.285Z,7.84
2022-12-19T17:18:46.981Z,8.47
2022-12-19T17:20:18.699Z,6.84
2022-12-19T17:21:51.553Z,7.49
2022-12-19T17:23:23.112Z,7.31
2022-12-19T17:24:54.763Z,7.63
2022-12-19T17:26:26.663Z,7.16
2022-12-19T17:27:59.011Z,8.96
2022-12-19T17:29:30.471Z,7.58
2022-12-19T17:31:02.308Z,7.66
2022-12-19T17:32:34.202Z,8.94
2022-12-19T17:34:06.295Z,6.31
2022-12-19T17:35:50.685Z,8.49
2022-12-19T17:37:22.429Z,7.13
2022-12-19T17:38:53.801Z,7.07
2022-12-19T17:40:25.321Z,7.05
2022-12-19T17:41:56.973Z,7.19
2022-12-19T17:43:42.137Z,7.45
2022-12-19T17:45:18.589Z,6.70
2022-12-19T17:47:26.469Z,6.71
2022-12-19T17:48:58.044Z,7.08
2022-12-19T17:50:29.645Z,7.28
2022-12-19T17:52:01.548Z,5.58
2022-12-19T17:53:34.176Z,6.62
2022-12-19T17:55:14.186Z,8.19
2022-12-19T17:56:51.530Z,7.79
2022-12-19T17:58:23.254Z,6.21
2022-12-19T17:59:55.031Z,8.20
2022-12-19T18:01:26.627Z,8.04
2022-12-19T18:03:38.292Z,8.40
2022-12-19T18:05:30.682Z,6.47
2022-12-19T18:07:22.500Z,9.98
2022-12-19T18:09:21.916Z,8.99
2022-12-19T18:10:53.590Z,9.63
2022-12-19T18:12:29.904Z,8.41
2022-12-19T18:14:01.802Z,8.70
2022-12-19T18:15:33.164Z,8.88
2022-12-19T18:17:04.823Z,8.85
2022-12-19T18:18:56.599Z,7.72
2022-12-19T18:20:31.884Z,6.17
2022-12-19T18:22:35.032Z,8.32
2022-12-19T18:24:07.423Z,8.45
2022-12-19T18:26:01.506Z,8.37
2022-12-19T18:27:36.321Z,9.45
2022-12-19T18:29:13.442Z,8.51
2022-12-19T18:31:18.937Z,9.17
2022-12-19T18:32:50.786Z,8.80
2022-12-19T18:34:36.436Z,7.81
2022-12-19T18:36:15.465Z,9.35
2022-12-19T18:37:47.217Z,10.62
2022-12-19T18:39:18.637Z,7.66
2022-12-19T18:40:51.265Z,7.52
2022-12-19T18:42:23.501Z,8.27
2022-12-19T18:43:55.275Z,7.31
2022-12-19T18:45:42.892Z,7.37
2022-12-19T18:47:34.769Z,8.23
2022-12-19T18:49:13.912Z,6.45
2022-12-19T18:51:11.487Z,6.41
2022-12-19T18:52:54.396Z,8.72
2022-12-19T18:54:31.617Z,6.25
2022-12-19T18:56:31.458Z,8.56
2022-12-19T18:58:14.339Z,8.36
2022-12-19T18:59:50.881Z,7.75
2022-12-19T19:01:47.703Z,7.26
2022-12-19T19:03:39.201Z,6.45
2022-12-19T19:05:40.888Z,6.93
2022-12-19T19:07:13.679Z,7.04
2022-12-19T19:08:45.683Z,7.46
2022-12-19T19:10:18.603Z,8.13
2022-12-19T19:11:50.680Z,7.57
2022-12-19T19:13:22.447Z,7.26
2022-12-19T19:14:54.238Z,7.55
2022-12-19T19:16:25.924Z,6.91
2022-12-19T19:17:59.399Z,7.14
2022-12-19T19:19:31.215Z,8.41
2022-12-19T19:21:38.099Z,8.43
2022-12-19T19:23:09.562Z,7.29
2022-12-19T19:24:51.883Z,7.63
2022-12-19T19:26:25.484Z,7.73
2022-12-19T19:27:56.965Z,7.50
2022-12-19T19:29:28.657Z,7.67
2022-12-19T19:31:00.419Z,6.52
2022-12-19T19:32:32.148Z,7.71
2022-12-19T19:34:49.288Z,7.27
2022-12-19T19:36:28.652Z,6.07
2022-12-19T19:38:00.518Z,7.52
2022-12-19T19:39:32.118Z,8.44
2022-12-19T19:41:03.949Z,6.98
2022-12-19T19:42:45.834Z,7.13
2022-12-19T19:44:22.524Z,6.85
2022-12-19T19:45:59.221Z,8.37
2022-12-19T19:47:31.130Z,7.35
2022-12-19T19:49:15.061Z,7.18
2022-12-19T19:50:47.228Z,7.25
2022-12-19T19:52:19.110Z,9.64
2022-12-19T19:53:50.857Z,7.67
2022-12-19T19:55:29.747Z,7.31
2022-12-19T19:57:02.300Z,6.66
2022-12-19T19:59:03.914Z,7.21
2022-12-19T20:00:40.835Z,8.00
2022-12-19T20:02:46.661Z,7.64
2022-12-19T20:05:13.584Z,7.51
2022-12-19T20:06:45.895Z,6.86
2022-12-19T20:08:24.564Z,7.01
2022-12-19T20:11:57.784Z,8.01
2022-12-19T20:13:39.875Z,6.95
2022-12-19T20:15:21.945Z,7.12
2022-12-19T20:16:53.873Z,7.78
2022-12-19T20:18:25.601Z,6.21
2022-12-19T20:20:03.419Z,6.48
2022-12-19T20:21:45.106Z,6.64
2022-12-19T20:23:31.675Z,8.50
2022-12-19T20:25:19.458Z,6.79
2022-12-19T20:26:51.630Z,7.67
2022-12-19T20:28:23.635Z,9.11
2022-12-19T20:30:06.595Z,6.93
2022-12-19T20:32:17.550Z,7.40
2022-12-19T20:34:07.527Z,7.06
2022-12-19T20:35:44.963Z,7.30
2022-12-19T20:37:31.670Z,6.58
2022-12-19T20:39:20.411Z,7.89
2022-12-19T20:41:11.226Z,7.45
2022-12-19T20:42:55.593Z,7.13
2022-12-19T20:44:53.173Z,6.63
2022-12-19T20:46:34.952Z,6.33
2022-12-19T20:48:08.706Z,6.42
2022-12-19T20:49:40.145Z,6.66
2022-12-19T20:51:12.417Z,6.29
2022-12-19T20:52:46.087Z,6.85
2022-12-19T20:54:33.729Z,7.96
2022-12-19T20:56:05.601Z,4.89
2022-12-19T20:58:10.869Z,5.63
2022-12-19T20:59:42.741Z,6.82
2022-12-19T21:01:14.967Z,7.82
2022-12-19T21:03:25.748Z,6.26
2022-12-19T21:04:59.553Z,6.57
2022-12-19T21:06:41.007Z,6.06
2022-12-19T21:08:17.391Z,7.87
2022-12-19T21:10:16.083Z,8.28
2022-12-19T21:12:18.867Z,5.79
2022-12-19T21:14:00.660Z,5.97
2022-12-19T21:15:32.594Z,5.01
2022-12-19T21:17:04.171Z,5.07
2022-12-19T21:18:35.682Z,5.99
2022-12-19T21:20:08.154Z,6.71
2022-12-19T21:22:05.240Z,7.02
2022-12-19T21:23:41.887Z,7.80
2022-12-19T21:25:13.574Z,7.03
2022-12-19T21:26:45.461Z,5.81
2022-12-19T21:28:22.611Z,6.34
2022-12-19T21:29:59.609Z,5.72
2022-12-19T21:31:41.345Z,6.46
2022-12-19T21:33:54.071Z,6.48
2022-12-19T21:36:00.321Z,6.48
2022-12-19T21:37:43.850Z,6.00
2022-12-19T21:39:41.324Z,6.50
2022-12-19T21:41:13.114Z,6.27
2022-12-19T21:42:44.735Z,6.78
2022-12-19T21:44:16.993Z,5.61
2022-12-19T21:45:49.019Z,6.15
2022-12-19T21:47:20.809Z,5.53
2022-12-19T21:48:52.678Z,5.93
2022-12-19T21:50:25.017Z,5.10
2022-12-19T21:51:56.720Z,6.23
2022-12-19T21:53:33.537Z,6.32
2022-12-19T21:55:31.672Z,7.02
2022-12-19T21:57:08.413Z,5.78
2022-12-19T21:58:46.528Z,6.15
2022-12-19T22:00:40.469Z,6.37
2022-12-19T22:02:12.533Z,6.49
2022-12-19T22:05:36.621Z,4.87
2022-12-19T22:07:19.082Z,5.26
2022-12-19T22:09:49.770Z,5.16
2022-12-19T22:11:22.773Z,6.03
2022-12-19T22:13:18.566Z,5.31
2022-12-19T22:14:50.529Z,5.93
2022-12-19T22:17:04.055Z,5.85